Time;durP1;ratioP1;P1;durP2;ratioP2;P2;SDS_P1;SDS_P2;PMS_P1;PMS_P2;Temp;Humidity;BMP_temperature;BMP_pressure;BME280_temperature;BME280_humidity;BME280_pressure;Samples;Min_cycle;Max_cycle;Signal;HPM_P1;HPM_P2
2020/12/09 00:01:42;;;;;;;31.85;18.10;;;2.90;93.20;;;;;;5016022;28;20674;-54
2020/12/09 00:04:08;;;;;;;32.40;18.95;;;2.80;93.00;;;;;;5020516;28;20052;-53
2020/12/09 00:06:37;;;;;;;28.25;17.35;;;2.80;93.30;;;;;;5012301;28;20088;-51
2020/12/09 00:09:10;;;;;;;36.90;17.92;;;2.80;93.20;;;;;;5017667;28;20041;-53
2020/12/09 00:11:56;;;;;;;65.00;17.20;;;2.80;93.10;;;;;;5001899;28;20108;-53
2020/12/09 00:14:22;;;;;;;38.58;15.77;;;2.80;93.10;;;;;;5013490;28;20441;-54
2020/12/09 00:16:48;;;;;;;26.08;16.00;;;2.70;92.70;;;;;;5014520;28;20466;-54
2020/12/09 00:19:14;;;;;;;24.42;15.43;;;2.60;92.80;;;;;;5017900;28;20041;-54
2020/12/09 00:21:40;;;;;;;23.63;15.73;;;2.60;92.90;;;;;;5019902;28;20050;-54
2020/12/09 00:24:05;;;;;;;25.30;15.75;;;2.50;93.00;;;;;;5019002;28;20049;-54
2020/12/09 00:26:33;;;;;;;27.48;16.30;;;2.50;92.80;;;;;;5016331;28;20054;-53
2020/12/09 00:28:59;;;;;;;21.23;14.25;;;2.40;92.60;;;;;;5024786;28;20042;-54
2020/12/09 00:31:45;;;;;;;23.77;15.23;;;2.30;92.70;;;;;;5003403;28;20050;-54
2020/12/09 00:34:11;;;;;;;17.70;13.02;;;2.20;92.90;;;;;;5020613;28;20098;-54
2020/12/09 00:36:37;;;;;;;23.45;15.00;;;2.20;92.90;;;;;;5018557;28;20034;-54
2020/12/09 00:39:03;;;;;;;29.95;16.58;;;2.20;92.80;;;;;;5036084;28;20045;-53
2020/12/09 00:41:29;;;;;;;49.38;16.55;;;2.10;92.90;;;;;;5016787;28;20044;-54
2020/12/09 00:43:56;;;;;;;56.00;14.77;;;2.10;92.90;;;;;;5017543;28;20049;-54
2020/12/09 00:46:25;;;;;;;25.30;14.40;;;2.10;93.00;;;;;;5019180;28;20040;-53
2020/12/09 00:49:11;;;;;;;100.00;19.10;;;2.20;93.00;;;;;;5010882;28;20485;-54
2020/12/09 00:51:57;;;;;;;159.65;19.92;;;2.20;92.90;;;;;;4999026;28;20100;-54
2020/12/09 00:54:43;;;;;;;53.75;16.13;;;2.20;92.90;;;;;;5006294;28;20049;-52
2020/12/09 00:57:28;;;;;;;85.07;15.32;;;2.10;93.10;;;;;;5007953;28;20057;-53
2020/12/09 00:59:54;;;;;;;95.28;15.43;;;2.00;92.90;;;;;;5033218;28;20050;-53
2020/12/09 01:02:20;;;;;;;83.15;16.67;;;2.00;92.90;;;;;;5028111;28;20046;-53
2020/12/09 01:04:49;;;;;;;48.90;15.60;;;1.90;92.90;;;;;;5018884;28;20068;-54
2020/12/09 01:07:16;;;;;;;99.05;15.15;;;1.90;93.00;;;;;;5018014;28;20069;-54
2020/12/09 01:09:42;;;;;;;30.05;12.93;;;1.90;92.90;;;;;;5013932;28;20040;-54
2020/12/09 01:12:08;;;;;;;39.63;15.43;;;1.80;92.80;;;;;;5016816;28;20144;-54
2020/12/09 01:14:33;;;;;;;88.40;16.70;;;1.70;92.80;;;;;;5013934;28;20041;-54
2020/12/09 01:17:02;;;;;;;56.47;15.25;;;1.70;93.00;;;;;;5015400;28;20042;-53
2020/12/09 01:19:28;;;;;;;166.75;17.42;;;1.70;93.00;;;;;;5008803;28;20487;-54
2020/12/09 01:21:54;;;;;;;179.30;17.58;;;1.60;92.90;;;;;;4991823;28;20107;-54
2020/12/09 01:24:20;;;;;;;57.42;15.10;;;1.50;92.80;;;;;;5024208;28;20070;-51
2020/12/09 01:26:46;;;;;;;37.63;14.85;;;1.50;92.90;;;;;;5030080;28;20044;-54
2020/12/09 01:29:31;;;;;;;28.10;14.40;;;1.50;93.10;;;;;;5007482;28;20521;-54
2020/12/09 01:32:01;;;;;;;33.30;14.98;;;1.50;93.20;;;;;;5023553;28;20041;-50
2020/12/09 01:34:29;;;;;;;25.13;13.88;;;1.50;93.10;;;;;;5017144;28;20117;-52
2020/12/09 01:36:55;;;;;;;26.08;14.70;;;1.50;93.10;;;;;;5015060;28;20397;-51
2020/12/09 01:39:21;;;;;;;27.45;14.77;;;1.60;93.10;;;;;;5015132;28;20042;-50
2020/12/09 01:41:47;;;;;;;21.25;14.00;;;1.60;92.90;;;;;;5022861;28;20041;-52
2020/12/09 01:44:34;;;;;;;22.67;14.23;;;1.60;92.80;;;;;;5003921;28;20065;-50
2020/12/09 01:47:06;;;;;;;25.05;15.05;;;1.50;93.00;;;;;;5022850;28;20442;-53
2020/12/09 01:49:34;;;;;;;25.48;15.18;;;1.60;93.10;;;;;;5026496;28;20038;-53
2020/12/09 01:52:02;;;;;;;24.52;15.45;;;1.60;93.10;;;;;;5027349;28;20461;-51
2020/12/09 01:54:28;;;;;;;22.63;13.40;;;1.60;93.00;;;;;;5017668;28;20054;-51
2020/12/09 01:57:14;;;;;;;51.40;16.25;;;1.60;92.90;;;;;;5016718;28;20052;-53
2020/12/09 01:59:40;;;;;;;52.53;16.83;;;1.60;92.90;;;;;;5025577;28;20042;-50
2020/12/09 02:02:07;;;;;;;75.55;18.27;;;1.60;93.00;;;;;;5022760;28;20095;-50
2020/12/09 02:04:34;;;;;;;60.10;17.25;;;1.70;93.00;;;;;;5014333;28;20037;-53
2020/12/09 02:07:01;;;;;;;56.92;17.40;;;1.70;93.10;;;;;;5023865;28;20541;-50
2020/12/09 02:09:56;;;;;;;37.28;15.20;;;1.70;93.20;;;;;;5003451;28;20045;-50
2020/12/09 02:12:42;;;;;;;31.92;15.73;;;1.70;93.10;;;;;;5013183;28;20079;-53
2020/12/09 02:15:08;;;;;;;29.77;15.93;;;1.70;93.10;;;;;;5016501;28;20117;-50
2020/12/09 02:17:54;;;;;;;28.98;15.55;;;1.80;93.20;;;;;;5020658;28;20053;-54
2020/12/09 02:20:19;;;;;;;56.55;15.88;;;1.80;93.20;;;;;;5018989;28;20505;-53
2020/12/09 02:22:52;;;;;;;65.60;14.80;;;1.80;93.20;;;;;;5031820;28;20045;-54
2020/12/09 02:25:18;;;;;;;45.75;14.52;;;1.80;93.20;;;;;;5013794;28;20049;-55
2020/12/09 02:27:43;;;;;;;31.42;14.15;;;1.70;93.10;;;;;;5023615;28;20042;-54
2020/12/09 02:30:29;;;;;;;63.17;14.85;;;1.70;93.10;;;;;;4997716;28;20415;-51
2020/12/09 02:32:55;;;;;;;54.30;14.07;;;1.70;93.10;;;;;;5012100;28;20289;-53
2020/12/09 02:35:22;;;;;;;41.25;14.55;;;1.70;93.10;;;;;;5005801;28;20068;-53
2020/12/09 02:37:47;;;;;;;50.50;14.20;;;1.70;93.00;;;;;;5025333;28;20050;-53
2020/12/09 02:40:33;;;;;;;51.05;14.75;;;1.60;93.00;;;;;;5011269;28;20573;-54
2020/12/09 02:42:59;;;;;;;42.83;14.60;;;1.60;92.90;;;;;;5023264;28;20046;-52
2020/12/09 02:45:25;;;;;;;42.88;15.55;;;1.60;93.00;;;;;;5009002;28;20110;-51
2020/12/09 02:47:52;;;;;;;49.13;15.25;;;1.60;93.00;;;;;;5020286;28;20037;-54
2020/12/09 02:50:18;;;;;;;26.25;15.07;;;1.60;93.00;;;;;;5023415;28;20042;-50
2020/12/09 02:53:03;;;;;;;44.97;15.98;;;1.50;93.00;;;;;;5003788;28;20133;-50
2020/12/09 02:55:29;;;;;;;40.33;15.82;;;1.50;93.10;;;;;;5019874;28;20070;-52
2020/12/09 02:57:54;;;;;;;70.38;17.23;;;1.50;93.20;;;;;;5013825;28;20077;-52
2020/12/09 03:00:20;;;;;;;44.15;15.68;;;1.50;93.20;;;;;;5025098;28;20099;-54
2020/12/09 03:02:46;;;;;;;37.75;15.32;;;1.50;93.30;;;;;;5023331;28;20494;-53
2020/12/09 03:05:11;;;;;;;44.80;15.13;;;1.50;93.30;;;;;;5026605;28;20053;-54
2020/12/09 03:07:37;;;;;;;52.20;16.45;;;1.50;93.30;;;;;;4992360;28;20049;-52
2020/12/09 03:10:03;;;;;;;43.38;14.88;;;1.60;93.30;;;;;;5023607;28;20096;-53
2020/12/09 03:12:29;;;;;;;34.15;15.57;;;1.60;93.20;;;;;;5029488;28;20098;-52
2020/12/09 03:14:55;;;;;;;45.17;16.35;;;1.60;93.30;;;;;;5016450;28;20417;-54
2020/12/09 03:17:40;;;;;;;39.15;15.40;;;1.60;93.30;;;;;;5010869;28;20100;-55
2020/12/09 03:20:06;;;;;;;42.38;15.43;;;1.60;93.20;;;;;;5018166;28;20134;-53
2020/12/09 03:22:32;;;;;;;70.60;16.10;;;1.60;93.10;;;;;;5002148;28;20049;-53
2020/12/09 03:24:57;;;;;;;45.25;15.80;;;1.60;93.20;;;;;;5028204;28;20132;-53
2020/12/09 03:27:23;;;;;;;42.85;15.75;;;1.60;93.20;;;;;;5017888;28;20045;-54
2020/12/09 03:29:48;;;;;;;42.42;16.73;;;1.60;93.30;;;;;;5022254;28;20442;-53
2020/12/09 03:32:14;;;;;;;50.25;16.35;;;1.70;93.30;;;;;;5021772;28;20053;-53
2020/12/09 03:34:40;;;;;;;63.25;17.58;;;1.60;93.30;;;;;;5026414;28;20099;-54
2020/12/09 03:37:05;;;;;;;125.90;18.63;;;1.60;93.30;;;;;;5022614;28;20473;-54
2020/12/09 03:39:51;;;;;;;155.10;19.23;;;1.60;93.30;;;;;;5008471;28;20053;-53
2020/12/09 03:42:17;;;;;;;80.78;17.73;;;1.70;93.50;;;;;;5024135;28;20502;-54
2020/12/09 03:44:42;;;;;;;42.65;16.17;;;1.70;93.50;;;;;;5015949;28;20046;-54
2020/12/09 03:47:28;;;;;;;36.50;15.25;;;1.70;93.50;;;;;;5011901;28;20133;-51
2020/12/09 03:49:54;;;;;;;61.17;15.48;;;1.70;93.50;;;;;;5017909;28;20133;-54
2020/12/09 03:52:19;;;;;;;64.03;15.13;;;1.70;93.40;;;;;;5010950;28;20054;-53
2020/12/09 03:54:45;;;;;;;128.93;17.38;;;1.70;93.50;;;;;;5020685;28;20132;-54
2020/12/09 03:57:30;;;;;;;97.60;16.58;;;1.70;93.40;;;;;;5004877;28;20092;-54
2020/12/09 03:59:56;;;;;;;50.35;15.80;;;1.70;93.40;;;;;;5027267;28;20147;-55
2020/12/09 04:02:42;;;;;;;68.20;15.40;;;1.70;93.40;;;;;;5009986;28;20417;-53
2020/12/09 04:05:08;;;;;;;74.93;15.95;;;1.60;93.40;;;;;;5016955;28;20582;-52
2020/12/09 04:07:34;;;;;;;68.38;15.93;;;1.60;93.40;;;;;;5014280;28;20112;-54
2020/12/09 04:10:19;;;;;;;106.65;17.40;;;1.60;93.30;;;;;;5016831;28;20041;-53
2020/12/09 04:13:05;;;;;;;44.80;14.73;;;1.60;93.30;;;;;;5018213;28;20072;-54
2020/12/09 04:15:30;;;;;;;38.55;14.68;;;1.60;93.60;;;;;;5017183;28;20104;-52
2020/12/09 04:17:56;;;;;;;63.42;16.80;;;1.60;93.40;;;;;;5021171;28;20041;-55
2020/12/09 04:20:22;;;;;;;47.08;15.55;;;1.50;93.40;;;;;;5033534;28;20120;-53
2020/12/09 04:22:47;;;;;;;45.17;15.15;;;1.60;93.40;;;;;;5027968;28;20052;-54
2020/12/09 04:25:13;;;;;;;47.17;15.25;;;1.60;93.30;;;;;;5033967;28;20050;-54
2020/12/09 04:27:58;;;;;;;60.65;15.52;;;1.60;93.40;;;;;;5010185;28;20112;-53
2020/12/09 04:30:24;;;;;;;38.28;15.50;;;1.50;93.40;;;;;;5016158;28;20046;-54
2020/12/09 04:32:49;;;;;;;63.38;15.50;;;1.60;93.40;;;;;;5018931;28;20073;-53
2020/12/09 04:35:15;;;;;;;39.58;13.90;;;1.60;93.40;;;;;;5029806;28;20034;-53
2020/12/09 04:37:41;;;;;;;30.88;13.57;;;1.60;93.40;;;;;;5025341;28;20041;-54
2020/12/09 04:40:07;;;;;;;20.13;12.77;;;1.60;93.40;;;;;;5017165;28;20508;-54
2020/12/09 04:42:33;;;;;;;50.22;13.70;;;1.60;93.30;;;;;;5024586;28;20037;-54
2020/12/09 04:44:59;;;;;;;36.85;13.38;;;1.60;93.30;;;;;;5030361;28;20056;-53
2020/12/09 04:47:40;;;;;;;63.78;14.10;;;1.60;93.30;;;;;;5021774;28;20050;-53
2020/12/09 04:50:34;;;;;;;34.80;12.95;;;1.60;93.30;;;;;;5003744;28;20072;-54
2020/12/09 04:53:25;;;;;;;66.20;14.02;;;1.60;93.30;;;;;;5022979;28;20088;-50
2020/12/09 04:55:53;;;;;;;80.00;14.77;;;1.70;93.20;;;;;;5027289;28;20076;-49
2020/12/09 04:58:41;;;;;;;49.67;14.48;;;1.60;93.20;;;;;;5009845;28;20428;-53
2020/12/09 05:01:33;;;;;;;65.80;14.35;;;1.60;93.20;;;;;;5012583;28;20053;-50
2020/12/09 05:03:58;;;;;;;71.63;14.90;;;1.60;93.30;;;;;;5016610;28;20037;-53
2020/12/09 05:06:24;;;;;;;55.75;14.95;;;1.60;93.30;;;;;;5017213;28;20042;-52
2020/12/09 05:09:13;;;;;;;37.65;14.43;;;1.60;93.40;;;;;;5006728;28;20042;-53
2020/12/09 05:12:06;;;;;;;30.88;13.80;;;1.60;93.40;;;;;;4990413;28;20530;-54
2020/12/09 05:14:52;;;;;;;43.63;13.32;;;1.60;93.40;;;;;;5004687;28;20497;-50
2020/12/09 05:17:21;;;;;;;33.22;14.27;;;1.60;93.40;;;;;;5031590;28;20497;-52
2020/12/09 05:19:48;;;;;;;48.83;14.35;;;1.60;93.30;;;;;;5028873;28;20041;-50
2020/12/09 05:22:16;;;;;;;30.17;13.45;;;1.60;93.40;;;;;;5013078;28;20056;-53
2020/12/09 05:24:42;;;;;;;32.67;13.52;;;1.60;93.40;;;;;;5022650;28;20462;-51
2020/12/09 05:27:28;;;;;;;38.65;14.25;;;1.60;93.50;;;;;;4990314;28;20046;-53
2020/12/09 05:30:34;;;;;;;37.05;14.13;;;1.60;93.50;;;;;;5014532;28;20391;-50
2020/12/09 05:33:29;;;;;;;36.03;13.18;;;1.60;93.50;;;;;;5013033;28;20042;-52
2020/12/09 05:35:56;;;;;;;34.17;13.73;;;1.60;93.50;;;;;;5024489;28;20108;-50
2020/12/09 05:38:22;;;;;;;28.67;13.07;;;1.60;93.50;;;;;;5029258;28;20064;-50
2020/12/09 05:40:48;;;;;;;34.97;13.82;;;1.70;93.50;;;;;;5021497;28;20045;-51
2020/12/09 05:43:15;;;;;;;35.55;13.38;;;1.70;93.40;;;;;;5016701;28;20038;-51
2020/12/09 05:46:09;;;;;;;33.80;12.93;;;1.70;93.40;;;;;;5008463;28;20465;-53
2020/12/09 05:48:35;;;;;;;43.83;14.35;;;1.70;93.30;;;;;;5023637;28;20405;-52
2020/12/09 05:51:01;;;;;;;20.17;12.82;;;1.70;93.30;;;;;;5022373;28;20037;-53
2020/12/09 05:53:32;;;;;;;20.30;12.43;;;1.70;93.60;;;;;;5021354;28;20128;-51
2020/12/09 05:56:13;;;;;;;19.92;13.07;;;1.70;93.30;;;;;;5013560;28;20457;-52
2020/12/09 05:58:58;;;;;;;19.75;13.50;;;1.70;93.30;;;;;;5019924;28;20501;-52
2020/12/09 06:01:27;;;;;;;34.72;14.85;;;1.70;93.30;;;;;;5016494;28;20092;-50
2020/12/09 06:03:55;;;;;;;20.48;14.38;;;1.70;93.30;;;;;;5018228;28;20052;-51
2020/12/09 06:06:42;;;;;;;25.23;13.75;;;1.70;93.30;;;;;;5005497;28;20050;-51
2020/12/09 06:09:10;;;;;;;25.25;14.35;;;1.70;93.30;;;;;;5022309;28;20045;-49
2020/12/09 06:11:36;;;;;;;39.20;15.27;;;1.80;93.40;;;;;;5008322;28;20045;-50
2020/12/09 06:14:02;;;;;;;31.92;15.48;;;1.80;93.30;;;;;;5030047;28;20044;-50
2020/12/09 06:16:47;;;;;;;31.15;14.98;;;1.80;93.30;;;;;;5006226;28;20041;-50
2020/12/09 06:19:13;;;;;;;45.20;15.45;;;1.80;93.40;;;;;;5002816;28;20038;-52
2020/12/09 06:21:38;;;;;;;27.98;15.52;;;1.70;93.40;;;;;;5021506;28;20418;-50
2020/12/09 06:24:04;;;;;;;43.17;14.65;;;1.70;93.40;;;;;;5010883;28;20042;-50
2020/12/09 06:26:30;;;;;;;58.28;15.93;;;1.70;93.40;;;;;;5023289;28;20045;-53
2020/12/09 06:28:55;;;;;;;34.78;15.20;;;1.70;93.50;;;;;;5025553;28;20038;-53
2020/12/09 06:31:22;;;;;;;79.22;16.30;;;1.70;93.50;;;;;;5021248;28;20467;-53
2020/12/09 06:33:54;;;;;;;176.30;18.73;;;1.70;93.60;;;;;;5026464;28;20037;-51
2020/12/09 06:36:40;;;;;;;115.40;17.75;;;1.80;93.50;;;;;;5002073;28;20045;-54
2020/12/09 06:39:06;;;;;;;94.15;17.02;;;1.80;93.50;;;;;;4994267;28;20046;-53
2020/12/09 06:41:32;;;;;;;106.78;16.48;;;1.80;93.50;;;;;;5019376;28;20050;-51
2020/12/09 06:44:18;;;;;;;43.67;15.25;;;1.80;93.60;;;;;;4998753;28;20116;-50
2020/12/09 06:47:09;;;;;;;86.63;16.67;;;1.80;93.60;;;;;;5004933;28;20061;-51
2020/12/09 06:49:38;;;;;;;139.85;17.38;;;1.80;93.70;;;;;;5029175;28;20037;-52
2020/12/09 06:52:10;;;;;;;92.35;16.73;;;1.80;93.60;;;;;;5019892;28;20038;-53
2020/12/09 06:54:43;;;;;;;123.32;18.17;;;1.90;93.70;;;;;;5022531;28;20041;-52
2020/12/09 06:57:13;;;;;;;68.35;16.75;;;1.90;93.60;;;;;;5005925;28;20083;-50
2020/12/09 06:59:38;;;;;;;60.60;15.20;;;1.90;93.70;;;;;;5016484;28;20083;-50
2020/12/09 07:02:05;;;;;;;65.63;16.42;;;1.90;93.50;;;;;;5021414;28;20450;-53
2020/12/09 07:04:53;;;;;;;102.25;17.33;;;1.90;93.60;;;;;;5021336;28;20041;-52
2020/12/09 07:07:28;;;;;;;85.80;16.98;;;1.90;93.70;;;;;;5021358;28;20041;-51
2020/12/09 07:09:55;;;;;;;80.78;17.30;;;1.90;93.70;;;;;;5021899;28;20098;-53
2020/12/09 07:12:21;;;;;;;71.68;17.90;;;1.90;93.70;;;;;;5003827;28;20413;-52
2020/12/09 07:14:51;;;;;;;69.68;16.67;;;1.90;93.90;;;;;;5006240;28;20052;-52
2020/12/09 07:17:19;;;;;;;84.22;18.67;;;1.90;93.90;;;;;;5022351;28;20434;-53
2020/12/09 07:20:06;;;;;;;63.05;17.25;;;2.00;93.80;;;;;;5001004;28;20046;-53
2020/12/09 07:22:52;;;;;;;107.47;20.63;;;2.00;93.90;;;;;;5011713;28;20411;-52
2020/12/09 07:25:17;;;;;;;109.00;20.15;;;2.10;94.00;;;;;;5025371;28;20069;-49
2020/12/09 07:27:44;;;;;;;64.03;19.20;;;2.10;93.90;;;;;;5025998;28;20422;-50
2020/12/09 07:30:30;;;;;;;62.20;18.73;;;2.10;94.00;;;;;;4999539;28;20097;-51
2020/12/09 07:32:55;;;;;;;109.78;19.20;;;2.10;94.00;;;;;;5019185;28;20038;-51
2020/12/09 07:35:23;;;;;;;75.10;19.40;;;2.10;94.00;;;;;;5015989;28;20030;-53
2020/12/09 07:37:53;;;;;;;54.30;19.48;;;2.10;94.10;;;;;;5014763;28;20046;-52
2020/12/09 07:40:29;;;;;;;77.82;19.90;;;2.20;94.20;;;;;;5016631;28;20045;-50
2020/12/09 07:43:09;;;;;;;53.38;17.90;;;2.20;94.20;;;;;;5011017;28;20041;-53
2020/12/09 07:45:37;;;;;;;72.72;20.25;;;2.20;94.20;;;;;;5010802;28;20056;-54
2020/12/09 07:48:23;;;;;;;120.20;22.50;;;2.20;94.20;;;;;;5015177;28;20036;-53
2020/12/09 07:50:52;;;;;;;77.38;19.92;;;2.30;94.20;;;;;;5014542;28;20042;-53
2020/12/09 07:53:18;;;;;;;118.63;21.73;;;2.30;94.20;;;;;;5016407;28;20394;-52
2020/12/09 07:55:44;;;;;;;97.75;22.05;;;2.30;94.20;;;;;;5015515;28;20042;-51
2020/12/09 07:58:11;;;;;;;118.88;22.50;;;2.40;94.30;;;;;;5017711;28;20044;-52
2020/12/09 08:00:45;;;;;;;109.10;22.63;;;2.40;94.30;;;;;;5012155;28;20682;-49
2020/12/09 08:03:31;;;;;;;121.72;22.23;;;2.40;94.30;;;;;;4995597;28;20053;-52
2020/12/09 08:06:22;;;;;;;74.35;21.05;;;2.40;94.40;;;;;;4999924;28;20045;-53
2020/12/09 08:08:50;;;;;;;189.23;26.80;;;2.90;94.50;;;;;;5016110;28;20421;-50
2020/12/09 08:11:16;;;;;;;167.63;25.30;;;2.50;94.40;;;;;;5016010;28;20057;-54
2020/12/09 08:13:42;;;;;;;74.40;22.40;;;2.50;94.40;;;;;;5013576;28;20045;-56
2020/12/09 08:16:11;;;;;;;103.63;22.73;;;2.50;94.40;;;;;;5013623;28;20037;-50
2020/12/09 08:19:07;;;;;;;132.50;21.95;;;2.50;94.50;;;;;;4995686;28;20473;-49
2020/12/09 08:22:06;;;;;;;150.48;24.50;;;2.60;94.50;;;;;;5020130;28;20037;-53
2020/12/09 08:24:31;;;;;;;113.68;23.55;;;2.60;94.40;;;;;;5010408;28;20049;-52
2020/12/09 08:26:59;;;;;;;115.82;22.92;;;2.60;94.30;;;;;;4997751;28;20050;-49
2020/12/09 08:29:24;;;;;;;124.07;22.35;;;2.60;94.40;;;;;;5021387;28;20037;-49
2020/12/09 08:32:02;;;;;;;119.82;22.80;;;2.60;94.50;;;;;;5014147;28;20112;-52
2020/12/09 08:34:28;;;;;;;111.47;22.15;;;2.70;94.40;;;;;;5015873;28;20046;-52
2020/12/09 08:36:54;;;;;;;93.07;20.85;;;2.60;94.40;;;;;;5020227;28;20052;-49
2020/12/09 08:39:39;;;;;;;91.10;21.98;;;2.70;94.30;;;;;;4999477;28;20037;-49
2020/12/09 08:42:05;;;;;;;150.95;22.63;;;2.60;94.20;;;;;;5015084;28;20038;-50
2020/12/09 08:44:31;;;;;;;137.18;21.30;;;2.60;94.30;;;;;;5016360;28;20044;-50
2020/12/09 08:46:56;;;;;;;120.75;20.48;;;2.60;94.40;;;;;;5016595;28;20428;-53
2020/12/09 08:49:22;;;;;;;132.65;21.25;;;2.60;94.20;;;;;;5010631;28;20041;-49
2020/12/09 08:51:48;;;;;;;153.02;22.45;;;2.60;94.20;;;;;;5010921;28;20568;-49
2020/12/09 08:54:13;;;;;;;74.15;20.55;;;2.60;94.20;;;;;;5015697;28;20038;-50
2020/12/09 08:56:59;;;;;;;143.32;22.98;;;2.60;94.10;;;;;;5006471;28;20048;-53
2020/12/09 08:59:44;;;;;;;92.82;21.15;;;2.60;94.30;;;;;;5000961;28;20062;-54
2020/12/09 09:02:10;;;;;;;235.98;24.38;;;2.60;94.40;;;;;;5025801;28;20056;-49
2020/12/09 09:04:36;;;;;;;267.00;26.13;;;2.60;94.20;;;;;;5017738;28;20133;-51
2020/12/09 09:07:03;;;;;;;140.43;22.52;;;2.60;94.10;;;;;;5024366;28;20037;-52
2020/12/09 09:09:28;;;;;;;83.63;20.90;;;2.60;94.20;;;;;;5023541;28;20129;-53
2020/12/09 09:11:57;;;;;;;170.55;23.63;;;2.50;94.20;;;;;;5019980;28;20109;-50
2020/12/09 09:14:23;;;;;;;164.45;23.73;;;2.50;94.40;;;;;;5012730;28;20486;-49
2020/12/09 09:16:49;;;;;;;145.00;23.10;;;2.60;94.30;;;;;;5016524;28;20033;-54
2020/12/09 09:19:15;;;;;;;153.77;25.33;;;2.60;94.30;;;;;;5023187;28;20088;-49
2020/12/09 09:21:41;;;;;;;93.88;22.08;;;2.60;94.30;;;;;;5019662;28;20406;-53
2020/12/09 09:24:06;;;;;;;188.75;22.75;;;2.60;94.30;;;;;;5025709;28;20037;-52
2020/12/09 09:26:35;;;;;;;122.68;22.10;;;2.60;94.30;;;;;;5013540;28;20041;-53
2020/12/09 09:29:02;;;;;;;152.18;23.30;;;2.50;94.10;;;;;;5011364;28;20045;-51
2020/12/09 09:31:47;;;;;;;153.13;23.00;;;2.50;94.30;;;;;;4994010;28;20050;-53
2020/12/09 09:34:13;;;;;;;107.38;21.77;;;2.50;94.30;;;;;;5021118;28;20046;-51
2020/12/09 09:36:59;;;;;;;272.48;24.90;;;2.50;94.40;;;;;;5011444;28;20069;-52
2020/12/09 09:39:24;;;;;;;175.52;22.27;;;2.60;94.30;;;;;;5018997;28;20477;-50
2020/12/09 09:41:55;;;;;;;230.88;24.45;;;2.50;94.10;;;;;;5017466;28;20050;-49
2020/12/09 09:44:21;;;;;;;262.27;25.20;;;2.50;94.10;;;;;;5012906;28;20124;-50
2020/12/09 09:46:48;;;;;;;294.20;27.05;;;2.50;94.30;;;;;;5009599;28;20042;-53
2020/12/09 09:49:14;;;;;;;188.40;23.92;;;2.50;94.00;;;;;;5013174;28;20099;-50
2020/12/09 09:51:40;;;;;;;216.45;24.23;;;2.50;94.00;;;;;;5008146;28;20053;-54
2020/12/09 09:54:06;;;;;;;182.52;24.52;;;2.50;94.10;;;;;;5012967;28;20141;-50
2020/12/09 09:56:52;;;;;;;268.23;25.95;;;2.50;94.00;;;;;;4998949;28;20463;-49
2020/12/09 09:59:18;;;;;;;103.93;23.17;;;2.40;94.00;;;;;;5032306;28;20072;-50
2020/12/09 10:01:43;;;;;;;139.60;24.70;;;2.50;94.10;;;;;;4993584;28;20069;-49
2020/12/09 10:04:10;;;;;;;217.18;25.75;;;2.40;94.30;;;;;;5012091;28;20105;-49
2020/12/09 10:06:36;;;;;;;226.98;26.08;;;2.50;94.40;;;;;;5008201;28;20103;-51
2020/12/09 10:09:05;;;;;;;183.93;24.45;;;2.50;94.40;;;;;;5019161;28;20034;-52
2020/12/09 10:11:31;;;;;;;43.40;20.83;;;2.60;94.40;;;;;;5017728;28;20033;-51
2020/12/09 10:13:58;;;;;;;92.18;23.67;;;2.60;94.20;;;;;;5027014;28;20042;-54
2020/12/09 10:16:26;;;;;;;290.45;27.25;;;2.60;94.40;;;;;;5026903;28;20458;-52
2020/12/09 10:18:53;;;;;;;68.72;21.92;;;2.60;94.40;;;;;;5035042;28;20034;-50
2020/12/09 10:21:26;;;;;;;186.35;23.60;;;2.60;94.30;;;;;;5021843;28;20045;-49
2020/12/09 10:23:53;;;;;;;167.18;22.95;;;2.60;94.40;;;;;;5027087;28;20050;-52
2020/12/09 10:26:18;;;;;;;140.63;22.27;;;2.60;94.30;;;;;;5016806;28;20117;-50
2020/12/09 10:28:47;;;;;;;176.93;23.73;;;2.70;94.30;;;;;;5024974;28;20117;-50
2020/12/09 10:31:13;;;;;;;205.52;24.95;;;2.70;93.80;;;;;;5017255;28;20124;-49
2020/12/09 10:33:38;;;;;;;105.75;22.13;;;2.60;93.70;;;;;;5029970;28;20501;-53
2020/12/09 10:36:04;;;;;;;103.28;23.00;;;2.50;93.90;;;;;;5019729;28;20475;-49
2020/12/09 10:38:50;;;;;;;88.05;21.83;;;2.60;94.00;;;;;;5001320;28;20049;-49
2020/12/09 10:41:40;;;;;;;114.28;23.83;;;2.60;93.80;;;;;;5005790;28;20052;-52
2020/12/09 10:44:07;;;;;;;137.90;23.95;;;2.50;94.00;;;;;;5021223;28;20042;-49
2020/12/09 10:46:35;;;;;;;160.15;25.20;;;2.60;93.80;;;;;;5024998;28;20048;-52
2020/12/09 10:49:02;;;;;;;227.13;27.85;;;2.60;93.60;;;;;;5021550;28;20042;-49
2020/12/09 10:51:28;;;;;;;245.05;29.50;;;2.50;93.60;;;;;;5016345;28;20034;-51
2020/12/09 10:53:54;;;;;;;172.50;25.95;;;2.40;93.60;;;;;;5001027;28;20037;-51
2020/12/09 10:56:27;;;;;;;108.95;25.13;;;2.40;93.70;;;;;;5021749;28;20041;-49
2020/12/09 10:59:15;;;;;;;154.83;27.23;;;2.30;93.90;;;;;;4997464;28;20045;-50
2020/12/09 11:01:42;;;;;;;236.70;30.95;;;3.00;94.00;;;;;;5012073;28;20300;-51
2020/12/09 11:04:08;;;;;;;171.25;27.42;;;2.40;93.70;;;;;;5012697;28;20044;-52
2020/12/09 11:06:35;;;;;;;132.60;28.58;;;2.40;94.00;;;;;;5012181;28;20038;-48
2020/12/09 11:09:20;;;;;;;148.23;26.77;;;2.40;93.80;;;;;;5013661;28;20421;-52
2020/12/09 11:12:07;;;;;;;121.20;25.67;;;2.40;93.80;;;;;;5014990;28;20088;-54
2020/12/09 11:14:36;;;;;;;165.82;27.90;;;2.40;93.90;;;;;;5031426;28;20445;-52
2020/12/09 11:17:03;;;;;;;88.18;25.42;;;2.50;93.80;;;;;;5014154;28;20094;-51
2020/12/09 11:19:29;;;;;;;127.85;30.23;;;2.50;93.70;;;;;;5013413;28;20449;-49
2020/12/09 11:21:54;;;;;;;97.00;27.02;;;2.40;93.80;;;;;;5011952;28;20045;-50
2020/12/09 11:24:20;;;;;;;96.65;27.45;;;2.50;94.00;;;;;;5014660;28;20054;-51
2020/12/09 11:27:06;;;;;;;129.82;28.67;;;2.50;93.90;;;;;;4997615;28;20475;-49
2020/12/09 11:29:32;;;;;;;249.35;32.13;;;2.50;93.90;;;;;;5010890;28;20137;-49
2020/12/09 11:31:59;;;;;;;108.63;29.42;;;2.50;93.80;;;;;;5021012;28;20042;-49
2020/12/09 11:34:44;;;;;;;150.77;36.33;;;2.50;93.60;;;;;;4998417;28;20049;-51
2020/12/09 11:37:10;;;;;;;141.73;32.40;;;2.50;93.80;;;;;;5027393;28;20049;-49
2020/12/09 11:39:36;;;;;;;170.05;33.47;;;2.40;93.90;;;;;;5013776;28;20091;-50
2020/12/09 11:42:03;;;;;;;112.65;32.08;;;2.40;93.90;;;;;;5014224;28;20029;-50
2020/12/09 11:44:29;;;;;;;109.47;30.80;;;2.40;94.10;;;;;;5014608;28;20042;-52
2020/12/09 11:46:55;;;;;;;185.75;30.77;;;2.40;94.10;;;;;;5022653;28;20044;-52
2020/12/09 11:49:40;;;;;;;103.45;30.42;;;2.50;94.00;;;;;;5009230;28;20041;-49
2020/12/09 11:52:06;;;;;;;161.68;33.30;;;2.40;94.00;;;;;;5020579;28;20505;-49
2020/12/09 11:54:52;;;;;;;190.10;33.75;;;2.40;94.00;;;;;;5010114;28;20049;-48
2020/12/09 11:57:18;;;;;;;119.97;32.65;;;2.40;94.00;;;;;;5015885;28;20045;-49
2020/12/09 11:59:43;;;;;;;152.20;33.72;;;2.40;93.90;;;;;;5007288;28;20371;-49
2020/12/09 12:02:29;;;;;;;131.45;33.53;;;2.40;93.90;;;;;;5002900;28;20049;-53
2020/12/09 12:05:17;;;;;;;197.73;35.97;;;2.40;94.00;;;;;;5007720;28;20077;-50
2020/12/09 12:08:04;;;;;;;154.90;35.60;;;2.40;94.10;;;;;;5009912;28;20107;-50
2020/12/09 12:10:31;;;;;;;152.70;34.90;;;2.40;94.00;;;;;;5018333;28;20417;-51
2020/12/09 12:12:57;;;;;;;107.47;33.47;;;2.30;94.20;;;;;;5018827;28;20119;-49
2020/12/09 12:15:23;;;;;;;130.32;31.70;;;2.40;94.00;;;;;;5018232;28;20069;-51
2020/12/09 12:17:49;;;;;;;163.65;32.58;;;2.40;94.20;;;;;;5023150;28;20030;-48
2020/12/09 12:20:16;;;;;;;105.65;30.08;;;2.40;94.40;;;;;;5014563;28;20068;-50
2020/12/09 12:22:42;;;;;;;109.35;28.92;;;2.50;94.40;;;;;;5025390;28;20414;-52
2020/12/09 12:25:07;;;;;;;108.78;30.13;;;2.60;94.20;;;;;;5022673;28;20521;-49
2020/12/09 12:27:33;;;;;;;154.65;30.30;;;2.60;94.10;;;;;;5025437;28;20051;-49
2020/12/09 12:30:18;;;;;;;152.68;30.98;;;2.60;94.00;;;;;;5021127;28;20041;-49
2020/12/09 12:33:04;;;;;;;98.88;26.80;;;2.50;93.80;;;;;;5009315;28;20047;-50
2020/12/09 12:35:30;;;;;;;175.07;27.75;;;2.40;93.90;;;;;;5025599;28;20045;-49
2020/12/09 12:38:15;;;;;;;169.02;29.25;;;2.40;93.70;;;;;;5007451;28;20057;-52
2020/12/09 12:41:02;;;;;;;178.95;29.15;;;2.40;93.40;;;;;;5003458;28;20049;-49
2020/12/09 12:43:48;;;;;;;161.32;25.75;;;2.30;93.20;;;;;;5002649;28;20056;-51
2020/12/09 12:46:14;;;;;;;188.90;26.23;;;2.20;93.30;;;;;;5025486;28;20125;-50
2020/12/09 12:48:40;;;;;;;136.48;25.75;;;2.20;93.40;;;;;;5031967;28;20025;-49
2020/12/09 12:51:05;;;;;;;204.57;28.83;;;1.50;93.20;;;;;;5020183;28;20045;-49
2020/12/09 12:53:31;;;;;;;154.10;27.40;;;2.00;93.30;;;;;;5024869;28;20103;-50
2020/12/09 12:55:57;;;;;;;205.32;27.13;;;2.00;93.40;;;;;;5023161;28;20045;-53